Airfield :







YOU CAN JOIN US ON...

 
LOGIN :

Register | Disclaimer

   EN    FR    IT 

 









Legend :    VFR   Marginal VFR   IFR   Intensive IFR   Very Intensive IFR
Visi :
Ceiling :
>= 8 km
>= 3000ft
5 to 8 km
1000 to 3000 ft
1500m to 5 km
500 to 1000 ft
800 to 1500m
200 to 500 ft
< 800m
< 200 ft
Symbols :   Thunderstorms  Fog  Heavy snow  Heavy precipitations  Wind > 20 kt






- Airport Elevation : 228 ft


KFSO - Franklin County State

CURRENT METAR :
  • 281935Z AUTO 19003KT 10SM DZ SCT015 BKN031 OVC039 08/06 A2989 RMK AO2 T00830057

EXPIRED METARs :
  • 281915Z AUTO 19005KT 10SM -DZ BKN034 OVC042 08/06 A2990 RMK AO2 T00820059
  • 281855Z AUTO 20004KT 7SM DZ OVC036 08/05 A2991 RMK AO2 T00810054
  • 281835Z AUTO 20003KT 10SM UP SCT032 BKN040 OVC046 09/04 A2991 RMK AO2 T00850042
  • 281815Z AUTO 19004KT 10SM BKN047 OVC050 08/04 A2991 RMK AO2 T00830041
  • 281755Z AUTO 20003KT 10SM SCT032 OVC048 08/04 A2992 RMK AO2 T00810043 10081 20022
  • 281735Z AUTO 18005KT 10SM SCT040 BKN048 OVC070 08/04 A2992 RMK AO2 T00760041
  • 281715Z AUTO 17007KT 10SM BKN040 OVC048 07/04 A2993 RMK AO2 T00730043
  • 281655Z AUTO 19004KT 10SM SCT026 BKN042 OVC050 07/04 A2995 RMK AO2 T00670043
  • 281635Z AUTO 17005KT 10SM BKN040 OVC048 06/04 A2997 RMK AO2 T00610038

TAF N/A
KZBW FIR / North America



MET'MAP, your aeronautical weather chart ! - Copyright ORBIFLY December 2007 - Disclaimer

ORBIFLY MET'MAP TEAM :

Programming & Development : Alexandra Zaïnal
Concept & original design : Baudouin d'Aumeries
Assistance for programming : Marc-Olivier Méhu
Technical & hardware support : Manuel Goepfert

Contact : metmap@orbifly.com




SOURCES & CREDITS :

   NOAA